Terminal Aerodrome Forecast
Issued by NWS

Home | Current Version | Previous Version | Text Only | Print | Product List | Glossary On
Versions: 1 2 3 4 5 6 7 8 9 10 11 12 13 14 15 16 17 18 19
000
FTUS43 KDTX 290522
TAFDET
TAF
KDET 290522Z 2906/3006 18004KT P6SM SKC
     FM291400 19014G22KT P6SM BKN200
     FM291800 19018G27KT P6SM OVC150
     FM292200 20019G29KT 5SM -SHRA BKN025 OVC035
     FM300200 24015G24KT P6SM BKN035 OVC050=

USA.gov is the U.S. government's official web portal to all federal, state and local government web resources and services.